sensor_id;sensor_type;location;lat;lon;timestamp;temperature;humidity
6903;DHT22;20232;49.408;8.702;2023-03-14T05:02:43;11.30;99.90
6903;DHT22;20232;49.408;8.702;2023-03-14T05:05:08;11.20;99.90
6903;DHT22;20232;49.408;8.702;2023-03-14T05:07:34;11.20;99.90
6903;DHT22;20232;49.408;8.702;2023-03-14T05:09:59;11.20;99.90
6903;DHT22;20232;49.408;8.702;2023-03-14T05:12:25;11.20;99.90
6903;DHT22;20232;49.408;8.702;2023-03-14T05:14:50;11.30;99.90
6903;DHT22;20232;49.408;8.702;2023-03-14T05:17:16;11.30;99.90
6903;DHT22;20232;49.408;8.702;2023-03-14T05:19:42;11.30;99.90
6903;DHT22;20232;49.408;8.702;2023-03-14T05:22:07;11.30;99.90
6903;DHT22;20232;49.408;8.702;2023-03-14T05:24:33;11.30;99.90
6903;DHT22;20232;49.408;8.702;2023-03-14T05:26:58;11.30;99.90
6903;DHT22;20232;49.408;8.702;2023-03-14T05:29:24;11.30;99.90
6903;DHT22;20232;49.408;8.702;2023-03-14T05:31:50;11.30;99.90
6903;DHT22;20232;49.408;8.702;2023-03-14T05:34:16;11.30;99.90
6903;DHT22;20232;49.408;8.702;2023-03-14T05:36:41;11.20;99.90
6903;DHT22;20232;49.408;8.702;2023-03-14T05:39:07;11.20;99.90
6903;DHT22;20232;49.408;8.702;2023-03-14T05:41:32;11.20;99.90
6903;DHT22;20232;49.408;8.702;2023-03-14T05:43:58;11.20;99.90
6903;DHT22;20232;49.408;8.702;2023-03-14T05:46:23;11.20;99.90
6903;DHT22;20232;49.408;8.702;2023-03-14T05:48:49;11.20;99.90
6903;DHT22;20232;49.408;8.702;2023-03-14T05:51:15;11.30;99.90
6903;DHT22;20232;49.408;8.702;2023-03-14T05:53:40;11.20;99.90
6903;DHT22;20232;49.408;8.702;2023-03-14T05:56:06;11.30;99.90
6903;DHT22;20232;49.408;8.702;2023-03-14T05:58:32;11.30;99.90
6903;DHT22;20232;49.408;8.702;2023-03-14T06:00:57;11.30;99.90
6903;DHT22;20232;49.408;8.702;2023-03-14T06:03:26;11.30;99.90
6903;DHT22;20232;49.408;8.702;2023-03-14T06:05:51;11.30;99.90
6903;DHT22;20232;49.408;8.702;2023-03-14T06:08:17;11.30;99.90
6903;DHT22;20232;49.408;8.702;2023-03-14T06:10:43;11.30;99.90
6903;DHT22;20232;49.408;8.702;2023-03-14T06:13:08;11.30;99.90
6903;DHT22;20232;49.408;8.702;2023-03-14T06:15:34;11.40;99.90
6903;DHT22;20232;49.408;8.702;2023-03-14T06:18:01;11.40;99.90
6903;DHT22;20232;49.408;8.702;2023-03-14T06:20:27;11.40;99.90
6903;DHT22;20232;49.408;8.702;2023-03-14T06:22:52;11.40;99.90
6903;DHT22;20232;49.408;8.702;2023-03-14T06:25:18;11.40;99.90
6903;DHT22;20232;49.408;8.702;2023-03-14T06:27:43;11.40;99.90
6903;DHT22;20232;49.408;8.702;2023-03-14T06:30:09;11.40;99.90
6903;DHT22;20232;49.408;8.702;2023-03-14T06:32:35;11.40;99.90
6903;DHT22;20232;49.408;8.702;2023-03-14T06:35:01;11.40;99.90
6903;DHT22;20232;49.408;8.702;2023-03-14T06:37:27;11.40;99.90
6903;DHT22;20232;49.408;8.702;2023-03-14T06:39:54;11.40;99.90
6903;DHT22;20232;49.408;8.702;2023-03-14T06:42:19;11.40;99.90
6903;DHT22;20232;49.408;8.702;2023-03-14T06:44:45;11.40;99.90
6903;DHT22;20232;49.408;8.702;2023-03-14T06:47:11;11.40;99.90
6903;DHT22;20232;49.408;8.702;2023-03-14T06:49:36;11.50;99.90
6903;DHT22;20232;49.408;8.702;2023-03-14T06:52:02;11.40;99.90
6903;DHT22;20232;49.408;8.702;2023-03-14T06:54:27;11.50;99.90
6903;DHT22;20232;49.408;8.702;2023-03-14T06:56:53;11.50;99.90
6903;DHT22;20232;49.408;8.702;2023-03-14T06:59:18;11.50;99.90
6903;DHT22;20232;49.408;8.702;2023-03-14T07:01:44;11.50;99.90
6903;DHT22;20232;49.408;8.702;2023-03-14T07:04:10;11.50;99.90
6903;DHT22;20232;49.408;8.702;2023-03-14T07:06:39;11.50;99.90
6903;DHT22;20232;49.408;8.702;2023-03-14T07:09:05;11.50;99.90
6903;DHT22;20232;49.408;8.702;2023-03-14T07:11:30;11.50;99.90
6903;DHT22;20232;49.408;8.702;2023-03-14T07:13:56;11.50;99.90
6903;DHT22;20232;49.408;8.702;2023-03-14T07:16:22;11.50;99.90
6903;DHT22;20232;49.408;8.702;2023-03-14T07:18:47;11.50;99.90
6903;DHT22;20232;49.408;8.702;2023-03-14T07:21:14;11.40;99.90
6903;DHT22;20232;49.408;8.702;2023-03-14T07:23:40;11.40;99.90
6903;DHT22;20232;49.408;8.702;2023-03-14T07:26:06;11.40;99.90
6903;DHT22;20232;49.408;8.702;2023-03-14T07:28:31;11.40;99.90
6903;DHT22;20232;49.408;8.702;2023-03-14T07:30:57;11.40;99.90
6903;DHT22;20232;49.408;8.702;2023-03-14T07:33:22;11.40;99.90
6903;DHT22;20232;49.408;8.702;2023-03-14T07:35:49;11.40;99.90
6903;DHT22;20232;49.408;8.702;2023-03-14T07:38:15;11.40;99.90
6903;DHT22;20232;49.408;8.702;2023-03-14T07:40:41;11.30;99.90
6903;DHT22;20232;49.408;8.702;2023-03-14T07:43:07;11.20;99.90
6903;DHT22;20232;49.408;8.702;2023-03-14T07:45:32;11.20;99.90
6903;DHT22;20232;49.408;8.702;2023-03-14T07:47:58;11.10;99.90
6903;DHT22;20232;49.408;8.702;2023-03-14T07:50:27;11.10;99.90
6903;DHT22;20232;49.408;8.702;2023-03-14T07:52:55;11.10;99.90
6903;DHT22;20232;49.408;8.702;2023-03-14T07:55:20;11.20;99.90
6903;DHT22;20232;49.408;8.702;2023-03-14T07:57:46;11.20;99.90
6903;DHT22;20232;49.408;8.702;2023-03-14T08:00:12;11.20;99.90
6903;DHT22;20232;49.408;8.702;2023-03-14T08:02:40;11.20;99.90
6903;DHT22;20232;49.408;8.702;2023-03-14T08:05:05;11.30;99.90
6903;DHT22;20232;49.408;8.702;2023-03-14T08:07:31;11.40;99.90
6903;DHT22;20232;49.408;8.702;2023-03-14T08:09:57;11.40;99.90
6903;DHT22;20232;49.408;8.702;2023-03-14T08:12:22;11.50;99.90
6903;DHT22;20232;49.408;8.702;2023-03-14T08:14:48;11.50;99.90
6903;DHT22;20232;49.408;8.702;2023-03-14T08:17:13;11.50;99.90
6903;DHT22;20232;49.408;8.702;2023-03-14T08:19:41;11.60;99.90
6903;DHT22;20232;49.408;8.702;2023-03-14T08:22:06;11.60;99.90
6903;DHT22;20232;49.408;8.702;2023-03-14T08:24:32;11.60;99.90
6903;DHT22;20232;49.408;8.702;2023-03-14T08:26:57;11.60;99.90
6903;DHT22;20232;49.408;8.702;2023-03-14T08:29:23;11.70;99.90
6903;DHT22;20232;49.408;8.702;2023-03-14T08:31:48;11.70;99.90
6903;DHT22;20232;49.408;8.702;2023-03-14T08:34:15;11.80;99.90
6903;DHT22;20232;49.408;8.702;2023-03-14T08:36:40;11.80;99.90
6903;DHT22;20232;49.408;8.702;2023-03-14T08:39:06;11.90;99.90
6903;DHT22;20232;49.408;8.702;2023-03-14T08:41:33;11.90;99.90
6903;DHT22;20232;49.408;8.702;2023-03-14T08:43:58;12.00;99.90
6903;DHT22;20232;49.408;8.702;2023-03-14T08:46:24;12.10;99.90
6903;DHT22;20232;49.408;8.702;2023-03-14T08:48:49;12.10;99.90
6903;DHT22;20232;49.408;8.702;2023-03-14T08:51:15;12.00;99.90
6903;DHT22;20232;49.408;8.702;2023-03-14T08:53:41;12.10;99.90
6903;DHT22;20232;49.408;8.702;2023-03-14T08:56:07;12.10;99.90
6903;DHT22;20232;49.408;8.702;2023-03-14T08:58:35;12.00;99.90
6903;DHT22;20232;49.408;8.702;2023-03-14T09:01:02;12.00;99.90
6903;DHT22;20232;49.408;8.702;2023-03-14T09:03:28;12.00;99.90
6903;DHT22;20232;49.408;8.702;2023-03-14T09:05:53;12.00;99.90
6903;DHT22;20232;49.408;8.702;2023-03-14T09:08:19;12.00;99.90
6903;DHT22;20232;49.408;8.702;2023-03-14T09:10:45;11.90;99.90
6903;DHT22;20232;49.408;8.702;2023-03-14T09:13:10;11.80;99.90
6903;DHT22;20232;49.408;8.702;2023-03-14T09:15:36;11.90;99.90
6903;DHT22;20232;49.408;8.702;2023-03-14T09:18:01;11.90;99.90
6903;DHT22;20232;49.408;8.702;2023-03-14T09:20:27;11.90;99.90
6903;DHT22;20232;49.408;8.702;2023-03-14T09:22:53;12.00;99.90
6903;DHT22;20232;49.408;8.702;2023-03-14T09:25:18;12.00;99.90
6903;DHT22;20232;49.408;8.702;2023-03-14T09:27:44;11.80;99.90
6903;DHT22;20232;49.408;8.702;2023-03-14T09:30:10;11.80;99.90
6903;DHT22;20232;49.408;8.702;2023-03-14T09:32:36;11.70;99.90
6903;DHT22;20232;49.408;8.702;2023-03-14T09:35:01;11.70;99.90
6903;DHT22;20232;49.408;8.702;2023-03-14T09:37:27;11.70;99.90
6903;DHT22;20232;49.408;8.702;2023-03-14T09:39:53;11.70;99.90
6903;DHT22;20232;49.408;8.702;2023-03-14T09:42:21;11.80;99.90
6903;DHT22;20232;49.408;8.702;2023-03-14T09:44:56;11.70;99.90
6903;DHT22;20232;49.408;8.702;2023-03-14T09:47:23;11.80;99.90
6903;DHT22;20232;49.408;8.702;2023-03-14T09:49:50;11.90;99.90
6903;DHT22;20232;49.408;8.702;2023-03-14T09:52:20;12.00;99.90
6903;DHT22;20232;49.408;8.702;2023-03-14T09:54:52;12.10;99.90
6903;DHT22;20232;49.408;8.702;2023-03-14T09:57:20;12.00;99.90
6903;DHT22;20232;49.408;8.702;2023-03-14T09:59:49;12.00;99.90
6903;DHT22;20232;49.408;8.702;2023-03-14T10:02:28;12.00;99.90
6903;DHT22;20232;49.408;8.702;2023-03-14T10:04:56;12.00;99.90
6903;DHT22;20232;49.408;8.702;2023-03-14T10:07:29;12.00;99.90
6903;DHT22;20232;49.408;8.702;2023-03-14T10:09:56;11.90;99.90
6903;DHT22;20232;49.408;8.702;2023-03-14T10:12:39;11.90;99.90
6903;DHT22;20232;49.408;8.702;2023-03-14T10:15:09;11.90;99.90
6903;DHT22;20232;49.408;8.702;2023-03-14T10:17:46;11.90;99.90
6903;DHT22;20232;49.408;8.702;2023-03-14T10:20:33;11.90;99.90
6903;DHT22;20232;49.408;8.702;2023-03-14T10:23:02;11.90;99.90
6903;DHT22;20232;49.408;8.702;2023-03-14T10:25:31;11.70;99.90
6903;DHT22;20232;49.408;8.702;2023-03-14T10:27:58;11.80;99.90
6903;DHT22;20232;49.408;8.702;2023-03-14T10:30:40;11.80;99.90
6903;DHT22;20232;49.408;8.702;2023-03-14T10:33:20;11.80;99.90
6903;DHT22;20232;49.408;8.702;2023-03-14T10:35:52;11.90;99.90
6903;DHT22;20232;49.408;8.702;2023-03-14T10:38:18;11.80;99.90
6903;DHT22;20232;49.408;8.702;2023-03-14T10:40:51;11.80;99.90
6903;DHT22;20232;49.408;8.702;2023-03-14T10:43:27;11.80;99.90
6903;DHT22;20232;49.408;8.702;2023-03-14T10:45:57;11.70;99.90
6903;DHT22;20232;49.408;8.702;2023-03-14T10:48:29;11.50;99.90
6903;DHT22;20232;49.408;8.702;2023-03-14T10:51:02;11.50;99.90
6903;DHT22;20232;49.408;8.702;2023-03-14T10:53:34;11.40;99.90
6903;DHT22;20232;49.408;8.702;2023-03-14T10:56:03;11.40;99.90
6903;DHT22;20232;49.408;8.702;2023-03-14T10:58:33;11.40;99.90
6903;DHT22;20232;49.408;8.702;2023-03-14T11:03:54;11.40;99.90
6903;DHT22;20232;49.408;8.702;2023-03-14T11:06:35;11.30;99.90
6903;DHT22;20232;49.408;8.702;2023-03-14T11:09:23;11.30;99.90
6903;DHT22;20232;49.408;8.702;2023-03-14T11:11:53;11.20;99.90
6903;DHT22;20232;49.408;8.702;2023-03-14T11:14:40;11.10;99.90
6903;DHT22;20232;49.408;8.702;2023-03-14T11:17:20;10.90;99.90
6903;DHT22;20232;49.408;8.702;2023-03-14T11:23:07;10.60;99.90
6903;DHT22;20232;49.408;8.702;2023-03-14T11:25:33;10.50;99.90
6903;DHT22;20232;49.408;8.702;2023-03-14T11:30:55;10.50;99.90
6903;DHT22;20232;49.408;8.702;2023-03-14T11:33:38;10.50;99.90
6903;DHT22;20232;49.408;8.702;2023-03-14T11:36:14;10.50;99.90
6903;DHT22;20232;49.408;8.702;2023-03-14T11:38:47;10.50;99.90
6903;DHT22;20232;49.408;8.702;2023-03-14T11:41:27;10.50;99.90
6903;DHT22;20232;49.408;8.702;2023-03-14T11:43:57;10.50;99.90
6903;DHT22;20232;49.408;8.702;2023-03-14T11:46:36;10.50;99.90
6903;DHT22;20232;49.408;8.702;2023-03-14T11:49:25;10.50;99.90
6903;DHT22;20232;49.408;8.702;2023-03-14T11:51:56;10.50;99.90
6903;DHT22;20232;49.408;8.702;2023-03-14T11:54:49;10.50;99.90
6903;DHT22;20232;49.408;8.702;2023-03-14T11:57:18;10.50;99.90
6903;DHT22;20232;49.408;8.702;2023-03-14T11:59:59;10.50;99.90
6903;DHT22;20232;49.408;8.702;2023-03-14T12:05:40;10.50;99.90
6903;DHT22;20232;49.408;8.702;2023-03-14T12:13:14;10.80;99.90
6903;DHT22;20232;49.408;8.702;2023-03-14T12:16:30;10.80;99.90
6903;DHT22;20232;49.408;8.702;2023-03-14T12:18:33;10.90;99.90
6903;DHT22;20232;49.408;8.702;2023-03-14T12:21:02;10.90;99.90
6903;DHT22;20232;49.408;8.702;2023-03-14T12:23:36;10.90;99.90
6903;DHT22;20232;49.408;8.702;2023-03-14T12:26:12;10.90;99.90
6903;DHT22;20232;49.408;8.702;2023-03-14T12:44:48;10.40;99.90
6903;DHT22;20232;49.408;8.702;2023-03-14T12:49:46;10.30;99.90
6903;DHT22;20232;49.408;8.702;2023-03-14T12:52:20;10.20;99.90
6903;DHT22;20232;49.408;8.702;2023-03-14T12:57:41;10.00;99.90
6903;DHT22;20232;49.408;8.702;2023-03-14T13:00:23;9.80;99.90
6903;DHT22;20232;49.408;8.702;2023-03-14T13:02:50;9.60;99.90
6903;DHT22;20232;49.408;8.702;2023-03-14T13:05:23;9.60;99.90
6903;DHT22;20232;49.408;8.702;2023-03-14T13:10:27;9.20;99.90
6903;DHT22;20232;49.408;8.702;2023-03-14T13:15:44;8.70;99.90
6903;DHT22;20232;49.408;8.702;2023-03-14T13:18:36;8.70;99.90
6903;DHT22;20232;49.408;8.702;2023-03-14T13:21:17;8.80;99.90
6903;DHT22;20232;49.408;8.702;2023-03-14T13:24:02;9.00;99.90
6903;DHT22;20232;49.408;8.702;2023-03-14T13:26:39;9.30;99.90
6903;DHT22;20232;49.408;8.702;2023-03-14T13:31:46;9.80;99.90
6903;DHT22;20232;49.408;8.702;2023-03-14T13:34:13;9.90;99.90
6903;DHT22;20232;49.408;8.702;2023-03-14T13:36:38;10.00;99.90
6903;DHT22;20232;49.408;8.702;2023-03-14T13:39:13;10.00;99.90
6903;DHT22;20232;49.408;8.702;2023-03-14T13:41:40;10.10;99.90
6903;DHT22;20232;49.408;8.702;2023-03-14T13:44:13;10.20;99.90
6903;DHT22;20232;49.408;8.702;2023-03-14T13:46:39;10.40;99.90
6903;DHT22;20232;49.408;8.702;2023-03-14T13:49:12;10.40;99.90
6903;DHT22;20232;49.408;8.702;2023-03-14T13:51:44;10.40;99.90
6903;DHT22;20232;49.408;8.702;2023-03-14T13:54:15;10.50;99.90
6903;DHT22;20232;49.408;8.702;2023-03-14T13:56:41;10.50;99.90
6903;DHT22;20232;49.408;8.702;2023-03-14T13:59:27;10.50;99.90
6903;DHT22;20232;49.408;8.702;2023-03-14T14:01:53;10.50;99.90
6903;DHT22;20232;49.408;8.702;2023-03-14T14:04:22;10.40;99.90
6903;DHT22;20232;49.408;8.702;2023-03-14T14:06:59;10.30;99.90
6903;DHT22;20232;49.408;8.702;2023-03-14T14:09:27;10.30;99.90
6903;DHT22;20232;49.408;8.702;2023-03-14T14:12:03;10.20;99.90
6903;DHT22;20232;49.408;8.702;2023-03-14T14:14:46;10.20;99.90
6903;DHT22;20232;49.408;8.702;2023-03-14T14:17:18;10.30;99.90
6903;DHT22;20232;49.408;8.702;2023-03-14T14:19:46;10.30;99.90
6903;DHT22;20232;49.408;8.702;2023-03-14T14:22:12;10.30;99.90
6903;DHT22;20232;49.408;8.702;2023-03-14T14:24:38;10.30;99.90
6903;DHT22;20232;49.408;8.702;2023-03-14T14:27:28;10.40;99.90
6903;DHT22;20232;49.408;8.702;2023-03-14T14:30:02;10.50;99.90
6903;DHT22;20232;49.408;8.702;2023-03-14T14:32:35;10.70;99.90
6903;DHT22;20232;49.408;8.702;2023-03-14T14:35:01;11.00;99.90
6903;DHT22;20232;49.408;8.702;2023-03-14T14:37:33;11.40;99.90
6903;DHT22;20232;49.408;8.702;2023-03-14T14:40:06;11.60;99.90
6903;DHT22;20232;49.408;8.702;2023-03-14T14:42:32;11.60;99.90
6903;DHT22;20232;49.408;8.702;2023-03-14T14:44:58;11.40;99.90
6903;DHT22;20232;49.408;8.702;2023-03-14T14:47:27;11.50;99.90
6903;DHT22;20232;49.408;8.702;2023-03-14T14:49:54;11.90;99.90
6903;DHT22;20232;49.408;8.702;2023-03-14T14:52:22;11.80;99.90
6903;DHT22;20232;49.408;8.702;2023-03-14T14:54:58;11.70;98.20
6903;DHT22;20232;49.408;8.702;2023-03-14T14:57:28;11.50;98.70
6903;DHT22;20232;49.408;8.702;2023-03-14T14:59:59;11.60;97.90
6903;DHT22;20232;49.408;8.702;2023-03-14T15:02:47;11.50;96.40
6903;DHT22;20232;49.408;8.702;2023-03-14T15:05:20;11.50;96.30
6903;DHT22;20232;49.408;8.702;2023-03-14T15:07:46;11.40;96.60
6903;DHT22;20232;49.408;8.702;2023-03-14T15:10:21;11.10;95.60
6903;DHT22;20232;49.408;8.702;2023-03-14T15:12:48;10.90;96.00
6903;DHT22;20232;49.408;8.702;2023-03-14T15:15:14;10.80;96.20
6903;DHT22;20232;49.408;8.702;2023-03-14T15:17:39;10.80;96.40
6903;DHT22;20232;49.408;8.702;2023-03-14T15:20:10;10.80;97.40
6903;DHT22;20232;49.408;8.702;2023-03-14T15:22:36;10.70;96.70
6903;DHT22;20232;49.408;8.702;2023-03-14T15:25:01;10.80;97.40
6903;DHT22;20232;49.408;8.702;2023-03-14T15:27:28;10.90;95.90
6903;DHT22;20232;49.408;8.702;2023-03-14T15:29:55;10.90;95.50
6903;DHT22;20232;49.408;8.702;2023-03-14T15:32:21;10.90;95.70
6903;DHT22;20232;49.408;8.702;2023-03-14T15:34:46;11.50;95.30
6903;DHT22;20232;49.408;8.702;2023-03-14T15:37:13;11.90;94.10
6903;DHT22;20232;49.408;8.702;2023-03-14T15:39:42;11.80;93.90
6903;DHT22;20232;49.408;8.702;2023-03-14T15:42:08;11.70;93.30
6903;DHT22;20232;49.408;8.702;2023-03-14T15:44:34;11.50;93.20
6903;DHT22;20232;49.408;8.702;2023-03-14T15:47:00;11.80;92.30
6903;DHT22;20232;49.408;8.702;2023-03-14T15:49:25;12.20;92.00
6903;DHT22;20232;49.408;8.702;2023-03-14T15:51:51;12.50;91.90
6903;DHT22;20232;49.408;8.702;2023-03-14T15:54:16;13.10;91.10
6903;DHT22;20232;49.408;8.702;2023-03-14T15:56:42;13.50;90.60
6903;DHT22;20232;49.408;8.702;2023-03-14T15:59:08;13.80;88.70
6903;DHT22;20232;49.408;8.702;2023-03-14T16:01:33;13.60;86.60
6903;DHT22;20232;49.408;8.702;2023-03-14T16:03:59;13.40;86.80
6903;DHT22;20232;49.408;8.702;2023-03-14T16:06:25;13.10;90.00
6903;DHT22;20232;49.408;8.702;2023-03-14T16:08:50;12.90;88.40
6903;DHT22;20232;49.408;8.702;2023-03-14T16:11:16;12.50;88.60
6903;DHT22;20232;49.408;8.702;2023-03-14T16:13:46;12.40;90.10
6903;DHT22;20232;49.408;8.702;2023-03-14T16:16:12;12.20;90.20
6903;DHT22;20232;49.408;8.702;2023-03-14T16:18:38;11.80;90.30
6903;DHT22;20232;49.408;8.702;2023-03-14T16:21:15;11.60;90.50
6903;DHT22;20232;49.408;8.702;2023-03-14T16:23:41;11.50;90.60
6903;DHT22;20232;49.408;8.702;2023-03-14T16:26:10;11.50;91.70
6903;DHT22;20232;49.408;8.702;2023-03-14T16:28:36;11.50;92.50
6903;DHT22;20232;49.408;8.702;2023-03-14T16:31:04;11.50;91.70
6903;DHT22;20232;49.408;8.702;2023-03-14T16:33:30;11.30;92.70
6903;DHT22;20232;49.408;8.702;2023-03-14T16:35:58;11.20;92.10
6903;DHT22;20232;49.408;8.702;2023-03-14T16:38:25;11.10;92.30
6903;DHT22;20232;49.408;8.702;2023-03-14T16:40:56;11.10;92.80
6903;DHT22;20232;49.408;8.702;2023-03-14T16:43:22;11.00;92.80
6903;DHT22;20232;49.408;8.702;2023-03-14T16:45:49;10.90;92.90
6903;DHT22;20232;49.408;8.702;2023-03-14T16:48:14;10.80;93.40
6903;DHT22;20232;49.408;8.702;2023-03-14T16:50:40;10.70;93.70
6903;DHT22;20232;49.408;8.702;2023-03-14T16:53:06;10.60;93.60
6903;DHT22;20232;49.408;8.702;2023-03-14T16:55:31;10.50;94.00
6903;DHT22;20232;49.408;8.702;2023-03-14T16:57:57;10.50;94.30
6903;DHT22;20232;49.408;8.702;2023-03-14T17:00:23;10.50;94.60
6903;DHT22;20232;49.408;8.702;2023-03-14T17:02:48;10.50;94.60
6903;DHT22;20232;49.408;8.702;2023-03-14T17:05:14;10.30;94.70
6903;DHT22;20232;49.408;8.702;2023-03-14T17:07:39;10.20;95.40
6903;DHT22;20232;49.408;8.702;2023-03-14T17:10:05;10.00;96.00
6903;DHT22;20232;49.408;8.702;2023-03-14T17:12:31;10.00;96.70
6903;DHT22;20232;49.408;8.702;2023-03-14T17:14:58;9.90;97.20
6903;DHT22;20232;49.408;8.702;2023-03-14T17:17:24;9.80;97.70
6903;DHT22;20232;49.408;8.702;2023-03-14T17:19:50;9.70;97.80
6903;DHT22;20232;49.408;8.702;2023-03-14T17:22:16;9.60;98.50
6903;DHT22;20232;49.408;8.702;2023-03-14T17:24:42;9.60;98.70
6903;DHT22;20232;49.408;8.702;2023-03-14T17:27:07;9.40;98.90
6903;DHT22;20232;49.408;8.702;2023-03-14T17:29:33;9.40;99.10
6903;DHT22;20232;49.408;8.702;2023-03-14T17:31:58;9.30;99.40
6903;DHT22;20232;49.408;8.702;2023-03-14T17:34:24;9.20;99.30
6903;DHT22;20232;49.408;8.702;2023-03-14T17:36:49;9.20;99.70
6903;DHT22;20232;49.408;8.702;2023-03-14T17:39:15;9.10;99.90
6903;DHT22;20232;49.408;8.702;2023-03-14T17:41:40;9.10;99.90
6903;DHT22;20232;49.408;8.702;2023-03-14T17:44:06;9.00;99.90
6903;DHT22;20232;49.408;8.702;2023-03-14T17:46:32;8.90;99.90
6903;DHT22;20232;49.408;8.702;2023-03-14T17:48:57;8.90;99.90
6903;DHT22;20232;49.408;8.702;2023-03-14T17:51:23;8.90;99.90
6903;DHT22;20232;49.408;8.702;2023-03-14T17:53:48;8.80;99.90
6903;DHT22;20232;49.408;8.702;2023-03-14T17:56:14;8.80;99.90
6903;DHT22;20232;49.408;8.702;2023-03-14T17:58:39;8.80;99.90
6903;DHT22;20232;49.408;8.702;2023-03-14T18:01:13;8.70;99.90
6903;DHT22;20232;49.408;8.702;2023-03-14T18:03:39;8.70;99.90
6903;DHT22;20232;49.408;8.702;2023-03-14T18:06:08;8.70;99.90
6903;DHT22;20232;49.408;8.702;2023-03-14T18:08:34;8.70;99.90
6903;DHT22;20232;49.408;8.702;2023-03-14T18:10:59;8.70;99.90
6903;DHT22;20232;49.408;8.702;2023-03-14T18:13:25;8.60;99.90
6903;DHT22;20232;49.408;8.702;2023-03-14T18:15:50;8.60;99.90
6903;DHT22;20232;49.408;8.702;2023-03-14T18:18:17;8.60;99.90
6903;DHT22;20232;49.408;8.702;2023-03-14T18:20:51;8.50;99.90
6903;DHT22;20232;49.408;8.702;2023-03-14T18:23:19;8.50;99.90
6903;DHT22;20232;49.408;8.702;2023-03-14T18:25:46;8.40;99.90
6903;DHT22;20232;49.408;8.702;2023-03-14T18:28:11;8.40;99.90
6903;DHT22;20232;49.408;8.702;2023-03-14T18:30:37;8.40;99.90
6903;DHT22;20232;49.408;8.702;2023-03-14T18:33:03;8.40;99.90
6903;DHT22;20232;49.408;8.702;2023-03-14T18:35:28;8.30;99.90
6903;DHT22;20232;49.408;8.702;2023-03-14T18:37:54;8.30;99.90
6903;DHT22;20232;49.408;8.702;2023-03-14T18:40:19;8.20;99.90
6903;DHT22;20232;49.408;8.702;2023-03-14T18:42:45;8.10;99.90
6903;DHT22;20232;49.408;8.702;2023-03-14T18:45:11;8.10;99.90
6903;DHT22;20232;49.408;8.702;2023-03-14T18:47:37;8.10;99.90
6903;DHT22;20232;49.408;8.702;2023-03-14T18:50:07;8.10;99.90
6903;DHT22;20232;49.408;8.702;2023-03-14T18:52:33;8.10;99.90
6903;DHT22;20232;49.408;8.702;2023-03-14T18:54:59;8.20;99.90
6903;DHT22;20232;49.408;8.702;2023-03-14T18:57:24;8.30;99.90
6903;DHT22;20232;49.408;8.702;2023-03-14T18:59:50;8.30;99.90
6903;DHT22;20232;49.408;8.702;2023-03-14T19:02:22;8.30;99.90
6903;DHT22;20232;49.408;8.702;2023-03-14T19:04:48;8.30;99.90
6903;DHT22;20232;49.408;8.702;2023-03-14T19:07:16;8.20;99.90
6903;DHT22;20232;49.408;8.702;2023-03-14T19:09:42;8.10;99.90
6903;DHT22;20232;49.408;8.702;2023-03-14T19:12:07;8.10;99.90
6903;DHT22;20232;49.408;8.702;2023-03-14T19:14:33;8.10;99.90
6903;DHT22;20232;49.408;8.702;2023-03-14T19:16:59;8.10;99.90
6903;DHT22;20232;49.408;8.702;2023-03-14T19:19:25;8.10;99.90
6903;DHT22;20232;49.408;8.702;2023-03-14T19:21:50;8.10;99.90
6903;DHT22;20232;49.408;8.702;2023-03-14T19:24:17;8.00;99.90
6903;DHT22;20232;49.408;8.702;2023-03-14T19:26:44;7.60;99.90
6903;DHT22;20232;49.408;8.702;2023-03-14T19:29:10;7.30;99.90
6903;DHT22;20232;49.408;8.702;2023-03-14T19:31:36;7.00;99.90
6903;DHT22;20232;49.408;8.702;2023-03-14T19:34:02;6.70;99.90
6903;DHT22;20232;49.408;8.702;2023-03-14T19:36:30;6.60;99.90
6903;DHT22;20232;49.408;8.702;2023-03-14T19:38:58;6.50;99.90
6903;DHT22;20232;49.408;8.702;2023-03-14T19:41:26;6.40;99.90
6903;DHT22;20232;49.408;8.702;2023-03-14T19:43:52;6.40;99.90
6903;DHT22;20232;49.408;8.702;2023-03-14T19:46:18;6.50;99.90
6903;DHT22;20232;49.408;8.702;2023-03-14T19:48:43;6.50;99.90
6903;DHT22;20232;49.408;8.702;2023-03-14T19:51:11;6.40;99.90
6903;DHT22;20232;49.408;8.702;2023-03-14T19:53:37;6.40;99.90
6903;DHT22;20232;49.408;8.702;2023-03-14T19:56:02;6.30;99.90
6903;DHT22;20232;49.408;8.702;2023-03-14T19:58:29;6.30;99.90
6903;DHT22;20232;49.408;8.702;2023-03-14T20:00:55;6.30;99.90
6903;DHT22;20232;49.408;8.702;2023-03-14T20:03:22;6.20;99.90
6903;DHT22;20232;49.408;8.702;2023-03-14T20:05:48;6.30;99.90
6903;DHT22;20232;49.408;8.702;2023-03-14T20:08:14;6.30;99.90
6903;DHT22;20232;49.408;8.702;2023-03-14T20:10:40;6.20;99.90
6903;DHT22;20232;49.408;8.702;2023-03-14T20:13:07;6.20;99.90
6903;DHT22;20232;49.408;8.702;2023-03-14T20:15:32;6.20;99.90
6903;DHT22;20232;49.408;8.702;2023-03-14T20:17:58;6.10;99.90
6903;DHT22;20232;49.408;8.702;2023-03-14T20:20:23;6.10;99.90
6903;DHT22;20232;49.408;8.702;2023-03-14T20:22:49;6.00;99.90
6903;DHT22;20232;49.408;8.702;2023-03-14T20:25:16;6.00;99.90
6903;DHT22;20232;49.408;8.702;2023-03-14T20:27:47;6.00;99.90
6903;DHT22;20232;49.408;8.702;2023-03-14T20:30:14;5.90;99.90
6903;DHT22;20232;49.408;8.702;2023-03-14T20:32:42;5.90;99.90
6903;DHT22;20232;49.408;8.702;2023-03-14T20:35:10;6.00;99.90
6903;DHT22;20232;49.408;8.702;2023-03-14T20:37:36;6.00;99.90
6903;DHT22;20232;49.408;8.702;2023-03-14T20:40:02;6.00;99.90
6903;DHT22;20232;49.408;8.702;2023-03-14T20:42:32;6.00;99.90
6903;DHT22;20232;49.408;8.702;2023-03-14T20:44:58;6.00;99.90
6903;DHT22;20232;49.408;8.702;2023-03-14T20:47:24;5.80;99.90
6903;DHT22;20232;49.408;8.702;2023-03-14T20:49:50;5.70;99.90
6903;DHT22;20232;49.408;8.702;2023-03-14T20:52:15;5.70;99.90
6903;DHT22;20232;49.408;8.702;2023-03-14T20:54:41;5.60;99.90
6903;DHT22;20232;49.408;8.702;2023-03-14T20:57:06;5.40;99.90
6903;DHT22;20232;49.408;8.702;2023-03-14T20:59:32;5.10;99.90
6903;DHT22;20232;49.408;8.702;2023-03-14T21:01:58;4.90;99.90
6903;DHT22;20232;49.408;8.702;2023-03-14T21:04:24;4.70;99.90
6903;DHT22;20232;49.408;8.702;2023-03-14T21:06:51;4.50;99.90
6903;DHT22;20232;49.408;8.702;2023-03-14T21:09:20;4.30;99.90
6903;DHT22;20232;49.408;8.702;2023-03-14T21:11:46;4.20;99.90
6903;DHT22;20232;49.408;8.702;2023-03-14T21:14:12;4.10;99.90
6903;DHT22;20232;49.408;8.702;2023-03-14T21:16:38;4.00;99.90
6903;DHT22;20232;49.408;8.702;2023-03-14T21:19:04;3.90;99.90
6903;DHT22;20232;49.408;8.702;2023-03-14T21:21:29;3.90;99.90
6903;DHT22;20232;49.408;8.702;2023-03-14T21:23:55;3.80;99.90
6903;DHT22;20232;49.408;8.702;2023-03-14T21:26:21;3.70;99.90
6903;DHT22;20232;49.408;8.702;2023-03-14T21:28:48;3.60;99.90
6903;DHT22;20232;49.408;8.702;2023-03-14T21:31:13;3.60;99.90
6903;DHT22;20232;49.408;8.702;2023-03-14T21:33:39;3.50;99.90
6903;DHT22;20232;49.408;8.702;2023-03-14T21:36:05;3.50;99.90
6903;DHT22;20232;49.408;8.702;2023-03-14T21:38:31;3.60;99.90
6903;DHT22;20232;49.408;8.702;2023-03-14T21:40:57;3.50;99.90
6903;DHT22;20232;49.408;8.702;2023-03-14T21:43:24;3.50;99.90